CTV912 WIII-WIMM
Flight info
| Callsign | CTV912 |
|---|---|
| Flight time | 1h 51m |
| Altitude | 36000 |
| Route | GOMEL T10 AKPER |
| Aircraft | A320/M-SDE2E3FGHIRWY/LB1 |
Departure
| Time | 2026-04-22 03:55 |
|---|---|
| Airport | Soekarno-Hatta International Airport (WIII) |
Arrival
| Time | 2026-04-22 05:46 |
|---|---|
| Airport | Kualanamu International Airport (WIMM) |
| Time | Latitude | Longitude | Altitude | Speed | Heading |
|---|---|---|---|---|---|
| 2026-04-22 03:18 | -6.13176 | 106.65135 | 36 ft | 0 kts | 72° |
| 2026-04-22 03:39 | -6.13179 | 106.65123 | 38 ft | 4 kts | 73° |
| 2026-04-22 03:40 | -6.13186 | 106.65101 | 38 ft | 2 kts | 73° |
| 2026-04-22 03:40 | -6.13190 | 106.65078 | 38 ft | 4 kts | 117° |
| 2026-04-22 03:40 | -6.13173 | 106.65064 | 38 ft | 4 kts | 156° |
| 2026-04-22 03:40 | -6.13166 | 106.65061 | 38 ft | 0 kts | 156° |
| 2026-04-22 03:45 | -6.13188 | 106.65071 | 38 ft | 8 kts | 156° |
| 2026-04-22 03:46 | -6.13250 | 106.65102 | 38 ft | 10 kts | 146° |
| 2026-04-22 03:46 | -6.13292 | 106.65149 | 38 ft | 8 kts | 127° |
| 2026-04-22 03:46 | -6.13324 | 106.65191 | 38 ft | 7 kts | 127° |
| 2026-04-22 03:46 | -6.13369 | 106.65217 | 38 ft | 10 kts | 159° |
| 2026-04-22 03:47 | -6.13447 | 106.65246 | 36 ft | 13 kts | 159° |
| 2026-04-22 03:47 | -6.13521 | 106.65274 | 37 ft | 10 kts | 159° |
| 2026-04-22 03:47 | -6.13583 | 106.65299 | 38 ft | 9 kts | 158° |
| 2026-04-22 03:47 | -6.13639 | 106.65322 | 39 ft | 10 kts | 153° |
| 2026-04-22 03:48 | -6.13648 | 106.65399 | 39 ft | 14 kts | 68° |
| 2026-04-22 03:48 | -6.13610 | 106.65493 | 38 ft | 14 kts | 68° |
| 2026-04-22 03:48 | -6.13576 | 106.65579 | 38 ft | 12 kts | 68° |
| 2026-04-22 03:48 | -6.13546 | 106.65652 | 38 ft | 10 kts | 68° |
| 2026-04-22 03:49 | -6.13516 | 106.65726 | 38 ft | 14 kts | 68° |
| 2026-04-22 03:49 | -6.13477 | 106.65827 | 38 ft | 16 kts | 68° |
| 2026-04-22 03:49 | -6.13438 | 106.65923 | 38 ft | 14 kts | 68° |
| 2026-04-22 03:49 | -6.13405 | 106.66006 | 38 ft | 12 kts | 68° |
| 2026-04-22 03:50 | -6.13377 | 106.66075 | 37 ft | 10 kts | 68° |
| 2026-04-22 03:50 | -6.13354 | 106.66133 | 39 ft | 8 kts | 68° |
| 2026-04-22 03:50 | -6.13335 | 106.66180 | 39 ft | 7 kts | 68° |
| 2026-04-22 03:50 | -6.13316 | 106.66228 | 39 ft | 10 kts | 68° |
| 2026-04-22 03:51 | -6.13281 | 106.66318 | 38 ft | 15 kts | 68° |
| 2026-04-22 03:51 | -6.13241 | 106.66416 | 39 ft | 17 kts | 68° |
| 2026-04-22 03:51 | -6.13188 | 106.66548 | 39 ft | 22 kts | 68° |
| 2026-04-22 03:51 | -6.13130 | 106.66692 | 39 ft | 23 kts | 68° |
| 2026-04-22 03:52 | -6.13069 | 106.66845 | 39 ft | 24 kts | 68° |
| 2026-04-22 03:52 | -6.13014 | 106.66984 | 39 ft | 21 kts | 68° |
| 2026-04-22 03:52 | -6.12958 | 106.67124 | 38 ft | 22 kts | 68° |
| 2026-04-22 03:52 | -6.12899 | 106.67271 | 39 ft | 23 kts | 68° |
| 2026-04-22 03:53 | -6.12868 | 106.67376 | 39 ft | 14 kts | 98° |
| 2026-04-22 03:53 | -6.12928 | 106.67429 | 40 ft | 11 kts | 174° |
| 2026-04-22 03:53 | -6.12993 | 106.67420 | 39 ft | 9 kts | 190° |
| 2026-04-22 03:53 | -6.13046 | 106.67391 | 40 ft | 11 kts | 250° |
| 2026-04-22 03:54 | -6.13096 | 106.67265 | 40 ft | 40 kts | 248° |
| 2026-04-22 03:54 | -6.13290 | 106.66775 | 42 ft | 107 kts | 248° |
| 2026-04-22 03:54 | -6.13635 | 106.65911 | 38 ft | 158 kts | 248° |
| 2026-04-22 03:54 | -6.14078 | 106.64787 | 320 ft | 178 kts | 249° |
| 2026-04-22 03:55 | -6.14533 | 106.63619 | 1020 ft | 180 kts | 249° |
| 2026-04-22 03:55 | -6.14998 | 106.62453 | 1720 ft | 180 kts | 248° |
| 2026-04-22 03:55 | -6.15486 | 106.61244 | 2068 ft | 195 kts | 248° |
| 2026-04-22 03:55 | -6.16023 | 106.59916 | 2277 ft | 216 kts | 248° |
| 2026-04-22 03:56 | -6.16618 | 106.58433 | 2547 ft | 240 kts | 249° |
| 2026-04-22 03:56 | -6.17276 | 106.56798 | 3014 ft | 260 kts | 248° |
| 2026-04-22 03:56 | -6.17961 | 106.55095 | 3789 ft | 266 kts | 248° |
| 2026-04-22 03:56 | -6.18658 | 106.53346 | 4647 ft | 272 kts | 248° |
| 2026-04-22 03:57 | -6.19349 | 106.51567 | 5476 ft | 275 kts | 253° |
| 2026-04-22 03:57 | -6.19562 | 106.49659 | 6236 ft | 279 kts | 277° |
| 2026-04-22 03:57 | -6.18956 | 106.47816 | 6999 ft | 281 kts | 302° |
| 2026-04-22 03:57 | -6.17614 | 106.46390 | 7739 ft | 285 kts | 327° |
| 2026-04-22 03:58 | -6.15897 | 106.45382 | 8490 ft | 288 kts | 330° |
| 2026-04-22 03:58 | -6.14148 | 106.44381 | 9210 ft | 291 kts | 330° |
| 2026-04-22 03:58 | -6.12378 | 106.43365 | 9913 ft | 295 kts | 330° |
| 2026-04-22 03:58 | -6.10588 | 106.42334 | 10603 ft | 298 kts | 330° |
| 2026-04-22 03:59 | -6.08730 | 106.41263 | 10860 ft | 319 kts | 330° |
| 2026-04-22 03:59 | -6.06736 | 106.40114 | 11009 ft | 341 kts | 330° |
| 2026-04-22 03:59 | -6.04657 | 106.38897 | 11477 ft | 350 kts | 329° |
| 2026-04-22 03:59 | -6.02581 | 106.37595 | 12072 ft | 354 kts | 328° |
| 2026-04-22 04:00 | -6.00537 | 106.36259 | 12692 ft | 357 kts | 327° |
| 2026-04-22 04:00 | -5.98454 | 106.34876 | 13279 ft | 361 kts | 327° |
| 2026-04-22 04:00 | -5.96349 | 106.33479 | 13839 ft | 365 kts | 327° |
| 2026-04-22 04:00 | -5.94216 | 106.32072 | 14388 ft | 369 kts | 328° |
| 2026-04-22 04:01 | -5.92055 | 106.30660 | 14932 ft | 372 kts | 328° |
| 2026-04-22 04:01 | -5.89869 | 106.29240 | 15453 ft | 376 kts | 328° |
| 2026-04-22 04:01 | -5.87659 | 106.27809 | 15974 ft | 380 kts | 328° |
| 2026-04-22 04:01 | -5.85430 | 106.26364 | 16476 ft | 383 kts | 328° |
| 2026-04-22 04:02 | -5.83182 | 106.24905 | 16962 ft | 386 kts | 328° |
| 2026-04-22 04:02 | -5.80914 | 106.23430 | 17451 ft | 390 kts | 328° |
| 2026-04-22 04:02 | -5.78625 | 106.21947 | 17918 ft | 393 kts | 328° |
| 2026-04-22 04:02 | -5.76316 | 106.20456 | 18379 ft | 396 kts | 328° |
| 2026-04-22 04:03 | -5.73990 | 106.18950 | 18835 ft | 399 kts | 328° |
| 2026-04-22 04:03 | -5.71648 | 106.17434 | 19271 ft | 402 kts | 328° |
| 2026-04-22 04:03 | -5.69291 | 106.15909 | 19700 ft | 404 kts | 328° |
| 2026-04-22 04:03 | -5.66920 | 106.14373 | 20104 ft | 407 kts | 328° |
| 2026-04-22 04:04 | -5.64535 | 106.12827 | 20526 ft | 409 kts | 328° |
| 2026-04-22 04:04 | -5.62126 | 106.11264 | 20839 ft | 412 kts | 328° |
| 2026-04-22 04:04 | -5.59718 | 106.09700 | 20896 ft | 412 kts | 328° |
| 2026-04-22 04:04 | -5.57336 | 106.08151 | 21238 ft | 415 kts | 328° |
| 2026-04-22 04:05 | -5.54881 | 106.06553 | 21647 ft | 417 kts | 328° |
| 2026-04-22 04:05 | -5.52468 | 106.04990 | 22022 ft | 419 kts | 328° |
| 2026-04-22 04:05 | -5.50007 | 106.03401 | 22386 ft | 421 kts | 328° |
| 2026-04-22 04:05 | -5.47538 | 106.01806 | 22739 ft | 423 kts | 328° |
| 2026-04-22 04:06 | -5.45057 | 106.00202 | 23089 ft | 425 kts | 328° |
| 2026-04-22 04:06 | -5.42563 | 105.98590 | 23429 ft | 427 kts | 328° |
| 2026-04-22 04:06 | -5.40058 | 105.96970 | 23759 ft | 429 kts | 327° |
| 2026-04-22 04:06 | -5.37540 | 105.95343 | 24089 ft | 431 kts | 327° |
| 2026-04-22 04:07 | -5.35010 | 105.93711 | 24398 ft | 433 kts | 327° |
| 2026-04-22 04:07 | -5.32469 | 105.92070 | 24713 ft | 435 kts | 327° |
| 2026-04-22 04:07 | -5.29919 | 105.90419 | 25027 ft | 437 kts | 327° |
| 2026-04-22 04:07 | -5.27359 | 105.88762 | 25330 ft | 439 kts | 327° |
| 2026-04-22 04:08 | -5.24788 | 105.87099 | 25617 ft | 441 kts | 327° |
| 2026-04-22 04:08 | -5.22205 | 105.85430 | 25896 ft | 443 kts | 327° |
| 2026-04-22 04:08 | -5.19614 | 105.83753 | 26187 ft | 444 kts | 327° |
| 2026-04-22 04:08 | -5.17025 | 105.82047 | 26460 ft | 446 kts | 326° |
| 2026-04-22 04:09 | -5.14469 | 105.80273 | 26721 ft | 448 kts | 325° |
| 2026-04-22 04:09 | -5.11931 | 105.78451 | 26982 ft | 449 kts | 324° |
| 2026-04-22 04:09 | -5.09398 | 105.76602 | 27240 ft | 451 kts | 324° |
| 2026-04-22 04:09 | -5.06854 | 105.74747 | 27486 ft | 453 kts | 324° |
| 2026-04-22 04:10 | -5.04293 | 105.72894 | 27725 ft | 455 kts | 324° |
| 2026-04-22 04:10 | -5.01712 | 105.71045 | 27980 ft | 457 kts | 324° |
| 2026-04-22 04:10 | -4.99115 | 105.69199 | 28236 ft | 458 kts | 324° |
| 2026-04-22 04:10 | -4.96506 | 105.67351 | 28472 ft | 460 kts | 325° |
| 2026-04-22 04:11 | -4.93885 | 105.65498 | 28701 ft | 462 kts | 325° |
| 2026-04-22 04:11 | -4.91254 | 105.63637 | 28916 ft | 464 kts | 324° |
| 2026-04-22 04:11 | -4.88617 | 105.61765 | 29130 ft | 465 kts | 324° |
| 2026-04-22 04:11 | -4.85970 | 105.59884 | 29337 ft | 467 kts | 324° |
| 2026-04-22 04:12 | -4.83313 | 105.57994 | 29525 ft | 469 kts | 324° |
| 2026-04-22 04:12 | -4.80648 | 105.56097 | 29754 ft | 471 kts | 324° |
| 2026-04-22 04:12 | -4.77974 | 105.54193 | 29953 ft | 472 kts | 324° |
| 2026-04-22 04:12 | -4.75291 | 105.52284 | 30158 ft | 474 kts | 324° |
| 2026-04-22 04:13 | -4.72597 | 105.50370 | 30348 ft | 475 kts | 324° |
| 2026-04-22 04:13 | -4.69894 | 105.48449 | 30545 ft | 477 kts | 324° |
| 2026-04-22 04:13 | -4.67183 | 105.46525 | 30770 ft | 477 kts | 325° |
| 2026-04-22 04:13 | -4.64476 | 105.44606 | 31072 ft | 476 kts | 325° |
| 2026-04-22 04:14 | -4.61774 | 105.42690 | 31356 ft | 475 kts | 325° |
| 2026-04-22 04:14 | -4.59078 | 105.40780 | 31641 ft | 474 kts | 325° |
| 2026-04-22 04:14 | -4.56386 | 105.38871 | 31911 ft | 474 kts | 325° |
| 2026-04-22 04:14 | -4.53698 | 105.36963 | 32189 ft | 473 kts | 325° |
| 2026-04-22 04:15 | -4.51015 | 105.35059 | 32482 ft | 472 kts | 325° |
| 2026-04-22 04:15 | -4.48375 | 105.33183 | 32738 ft | 472 kts | 325° |
| 2026-04-22 04:15 | -4.45700 | 105.31284 | 33005 ft | 471 kts | 325° |
| 2026-04-22 04:15 | -4.43026 | 105.29390 | 33278 ft | 470 kts | 325° |
| 2026-04-22 04:16 | -4.40355 | 105.27501 | 33554 ft | 469 kts | 325° |
| 2026-04-22 04:16 | -4.35035 | 105.23725 | 34113 ft | 468 kts | 325° |
| 2026-04-22 04:16 | -4.32384 | 105.21839 | 34380 ft | 467 kts | 325° |
| 2026-04-22 04:17 | -4.29737 | 105.19957 | 34638 ft | 466 kts | 325° |
| 2026-04-22 04:17 | -4.27092 | 105.18080 | 34886 ft | 466 kts | 325° |
| 2026-04-22 04:17 | -4.24451 | 105.16207 | 35124 ft | 465 kts | 325° |
| 2026-04-22 04:17 | -4.21812 | 105.14338 | 35368 ft | 464 kts | 325° |
| 2026-04-22 04:18 | -4.19179 | 105.12471 | 35594 ft | 463 kts | 325° |
| 2026-04-22 04:18 | -4.16549 | 105.10607 | 35801 ft | 463 kts | 325° |
| 2026-04-22 04:18 | -4.13919 | 105.08745 | 35866 ft | 462 kts | 325° |
| 2026-04-22 04:19 | -4.08802 | 105.04870 | 35882 ft | 461 kts | 317° |
| 2026-04-22 04:19 | -4.04122 | 105.00475 | 35883 ft | 461 kts | 317° |
| 2026-04-22 04:20 | -4.00226 | 104.96826 | 35881 ft | 461 kts | 317° |
| 2026-04-22 04:20 | -3.95537 | 104.92436 | 35884 ft | 462 kts | 317° |
| 2026-04-22 04:21 | -3.90844 | 104.88042 | 35881 ft | 462 kts | 317° |
| 2026-04-22 04:21 | -3.86149 | 104.83655 | 35872 ft | 462 kts | 317° |
| 2026-04-22 04:22 | -3.81575 | 104.79378 | 35867 ft | 461 kts | 317° |
| 2026-04-22 04:22 | -3.76887 | 104.74987 | 35863 ft | 461 kts | 317° |
| 2026-04-22 04:23 | -3.72201 | 104.70605 | 35872 ft | 461 kts | 317° |
| 2026-04-22 04:23 | -3.67505 | 104.66221 | 35873 ft | 462 kts | 317° |
| 2026-04-22 04:24 | -3.62813 | 104.61830 | 35868 ft | 462 kts | 317° |
| 2026-04-22 04:24 | -3.58118 | 104.57439 | 35863 ft | 462 kts | 317° |
| 2026-04-22 04:25 | -3.53423 | 104.53049 | 35863 ft | 462 kts | 317° |
| 2026-04-22 04:25 | -3.48723 | 104.48656 | 35865 ft | 462 kts | 317° |
| 2026-04-22 04:26 | -3.44021 | 104.44262 | 35865 ft | 462 kts | 317° |
| 2026-04-22 04:26 | -3.39308 | 104.39868 | 35879 ft | 463 kts | 317° |
| 2026-04-22 04:27 | -3.34604 | 104.35480 | 35880 ft | 463 kts | 317° |
| 2026-04-22 04:27 | -3.29896 | 104.31080 | 35881 ft | 463 kts | 317° |
| 2026-04-22 04:28 | -3.25187 | 104.26684 | 35865 ft | 463 kts | 317° |
| 2026-04-22 04:28 | -3.20481 | 104.22288 | 35881 ft | 463 kts | 317° |
| 2026-04-22 04:29 | -3.15773 | 104.17897 | 35868 ft | 463 kts | 317° |
| 2026-04-22 04:29 | -3.11100 | 104.13529 | 35871 ft | 462 kts | 317° |
| 2026-04-22 04:30 | -3.06370 | 104.09114 | 35869 ft | 462 kts | 317° |
| 2026-04-22 04:30 | -3.01666 | 104.04731 | 35863 ft | 462 kts | 317° |
| 2026-04-22 04:31 | -2.96994 | 104.00379 | 35857 ft | 461 kts | 317° |
| 2026-04-22 04:31 | -2.92296 | 103.95999 | 35863 ft | 462 kts | 317° |
| 2026-04-22 04:32 | -2.87602 | 103.91615 | 35858 ft | 462 kts | 317° |
| 2026-04-22 04:32 | -2.82883 | 103.87199 | 35865 ft | 462 kts | 317° |
| 2026-04-22 04:33 | -2.78187 | 103.82816 | 35863 ft | 462 kts | 317° |
| 2026-04-22 04:33 | -2.73483 | 103.78436 | 35871 ft | 462 kts | 317° |
| 2026-04-22 04:34 | -2.68778 | 103.74053 | 35861 ft | 462 kts | 317° |
| 2026-04-22 04:34 | -2.64071 | 103.69663 | 35863 ft | 463 kts | 317° |
| 2026-04-22 04:35 | -2.59391 | 103.65300 | 35881 ft | 463 kts | 317° |
| 2026-04-22 04:35 | -2.54684 | 103.60913 | 35866 ft | 463 kts | 317° |
| 2026-04-22 04:36 | -2.49973 | 103.56520 | 35880 ft | 463 kts | 317° |
| 2026-04-22 04:36 | -2.45259 | 103.52130 | 35871 ft | 463 kts | 317° |
| 2026-04-22 04:37 | -2.40547 | 103.47740 | 35867 ft | 463 kts | 317° |
| 2026-04-22 04:37 | -2.35832 | 103.43357 | 35868 ft | 463 kts | 317° |
| 2026-04-22 04:38 | -2.31124 | 103.38966 | 35874 ft | 463 kts | 317° |
| 2026-04-22 04:38 | -2.26422 | 103.34569 | 35866 ft | 463 kts | 317° |
| 2026-04-22 04:39 | -2.21719 | 103.30173 | 35880 ft | 463 kts | 317° |
| 2026-04-22 04:39 | -2.17021 | 103.25778 | 35867 ft | 462 kts | 317° |
| 2026-04-22 04:40 | -2.12317 | 103.21393 | 35880 ft | 462 kts | 317° |
| 2026-04-22 04:40 | -2.07619 | 103.17004 | 35873 ft | 462 kts | 317° |
| 2026-04-22 04:41 | -2.02925 | 103.12612 | 35867 ft | 462 kts | 317° |
| 2026-04-22 04:41 | -1.98225 | 103.08221 | 35880 ft | 462 kts | 317° |
| 2026-04-22 04:42 | -1.93539 | 103.03852 | 35868 ft | 462 kts | 317° |
| 2026-04-22 04:42 | -1.88833 | 102.99467 | 35876 ft | 462 kts | 317° |
| 2026-04-22 04:43 | -1.84130 | 102.95081 | 35868 ft | 462 kts | 317° |
| 2026-04-22 04:43 | -1.79428 | 102.90694 | 35874 ft | 462 kts | 317° |
| 2026-04-22 04:44 | -1.74728 | 102.86304 | 35863 ft | 463 kts | 317° |
| 2026-04-22 04:44 | -1.70025 | 102.81910 | 35881 ft | 463 kts | 317° |
| 2026-04-22 04:45 | -1.65319 | 102.77513 | 35881 ft | 463 kts | 317° |
| 2026-04-22 04:45 | -1.60610 | 102.73120 | 35880 ft | 463 kts | 317° |
| 2026-04-22 04:46 | -1.55898 | 102.68731 | 35881 ft | 463 kts | 317° |
| 2026-04-22 04:46 | -1.51191 | 102.64336 | 35880 ft | 463 kts | 317° |
| 2026-04-22 04:47 | -1.46482 | 102.59938 | 35883 ft | 463 kts | 317° |
| 2026-04-22 04:47 | -1.41770 | 102.55533 | 35885 ft | 463 kts | 317° |
| 2026-04-22 04:48 | -1.37069 | 102.51124 | 35885 ft | 463 kts | 317° |
| 2026-04-22 04:48 | -1.32358 | 102.46730 | 35885 ft | 463 kts | 317° |
| 2026-04-22 04:49 | -1.27681 | 102.42369 | 35884 ft | 463 kts | 317° |
| 2026-04-22 04:49 | -1.22974 | 102.37979 | 35884 ft | 463 kts | 317° |
| 2026-04-22 04:50 | -1.20965 | 102.36103 | 35883 ft | 463 kts | 317° |
| 2026-04-22 04:50 | -1.16266 | 102.31714 | 35880 ft | 463 kts | 317° |
| 2026-04-22 04:51 | -1.11561 | 102.27321 | 35881 ft | 463 kts | 317° |
| 2026-04-22 04:51 | -1.06851 | 102.22927 | 35877 ft | 463 kts | 317° |
| 2026-04-22 04:52 | -1.02144 | 102.18526 | 35863 ft | 462 kts | 317° |
| 2026-04-22 04:52 | -0.97447 | 102.14136 | 35863 ft | 462 kts | 317° |
| 2026-04-22 04:53 | -0.92751 | 102.09757 | 35870 ft | 462 kts | 317° |
| 2026-04-22 04:53 | -0.88077 | 102.05402 | 35864 ft | 462 kts | 317° |
| 2026-04-22 04:54 | -0.83380 | 102.01009 | 35874 ft | 462 kts | 317° |
| 2026-04-22 04:54 | -0.78684 | 101.96611 | 35880 ft | 463 kts | 317° |
| 2026-04-22 04:55 | -0.73981 | 101.92221 | 35874 ft | 462 kts | 317° |
| 2026-04-22 04:55 | -0.69273 | 101.87827 | 35880 ft | 462 kts | 317° |
| 2026-04-22 04:56 | -0.64574 | 101.83445 | 35876 ft | 462 kts | 317° |
| 2026-04-22 04:56 | -0.59867 | 101.79060 | 35867 ft | 462 kts | 317° |
| 2026-04-22 04:57 | -0.55171 | 101.74676 | 35868 ft | 462 kts | 317° |
| 2026-04-22 04:57 | -0.50477 | 101.70295 | 35866 ft | 462 kts | 317° |
| 2026-04-22 04:58 | -0.45783 | 101.65917 | 35865 ft | 462 kts | 317° |
| 2026-04-22 04:58 | -0.41090 | 101.61537 | 35854 ft | 462 kts | 317° |
| 2026-04-22 04:59 | -0.36396 | 101.57157 | 35859 ft | 462 kts | 317° |
| 2026-04-22 04:59 | -0.31698 | 101.52773 | 35866 ft | 462 kts | 317° |
| 2026-04-22 05:00 | -0.26999 | 101.48392 | 35872 ft | 462 kts | 317° |
| 2026-04-22 05:00 | -0.22338 | 101.44035 | 35863 ft | 462 kts | 317° |
| 2026-04-22 05:01 | -0.17639 | 101.39649 | 35875 ft | 462 kts | 317° |
| 2026-04-22 05:01 | -0.12934 | 101.35261 | 35881 ft | 463 kts | 317° |
| 2026-04-22 05:02 | -0.08229 | 101.30867 | 35883 ft | 463 kts | 317° |
| 2026-04-22 05:02 | -0.03524 | 101.26475 | 35883 ft | 463 kts | 317° |
| 2026-04-22 05:03 | 0.01180 | 101.22090 | 35882 ft | 462 kts | 317° |
| 2026-04-22 05:03 | 0.05876 | 101.17701 | 35869 ft | 462 kts | 317° |
| 2026-04-22 05:04 | 0.10572 | 101.13319 | 35866 ft | 462 kts | 317° |
| 2026-04-22 05:04 | 0.15264 | 101.08942 | 35871 ft | 461 kts | 317° |
| 2026-04-22 05:05 | 0.19953 | 101.04565 | 35864 ft | 461 kts | 317° |
| 2026-04-22 05:05 | 0.24645 | 101.00191 | 35870 ft | 461 kts | 317° |
| 2026-04-22 05:06 | 0.29333 | 100.95818 | 35868 ft | 461 kts | 317° |
| 2026-04-22 05:06 | 0.33228 | 100.92182 | 35865 ft | 461 kts | 317° |
| 2026-04-22 05:07 | 0.37916 | 100.87815 | 35866 ft | 461 kts | 317° |
| 2026-04-22 05:07 | 0.42598 | 100.83444 | 35880 ft | 461 kts | 317° |
| 2026-04-22 05:08 | 0.47278 | 100.79070 | 35880 ft | 461 kts | 318° |
| 2026-04-22 05:08 | 0.51965 | 100.74700 | 35880 ft | 461 kts | 318° |
| 2026-04-22 05:09 | 0.56649 | 100.70326 | 35881 ft | 461 kts | 318° |
| 2026-04-22 05:09 | 0.61332 | 100.65953 | 35883 ft | 461 kts | 318° |
| 2026-04-22 05:10 | 0.66016 | 100.61580 | 35885 ft | 461 kts | 318° |
| 2026-04-22 05:10 | 0.70699 | 100.57208 | 35887 ft | 461 kts | 317° |
| 2026-04-22 05:11 | 0.75384 | 100.52834 | 35892 ft | 461 kts | 318° |
| 2026-04-22 05:11 | 0.80070 | 100.48457 | 35897 ft | 461 kts | 318° |
| 2026-04-22 05:12 | 0.84754 | 100.44082 | 35901 ft | 461 kts | 318° |
| 2026-04-22 05:12 | 0.89443 | 100.39716 | 35903 ft | 461 kts | 318° |
| 2026-04-22 05:13 | 0.94128 | 100.35345 | 35905 ft | 461 kts | 318° |
| 2026-04-22 05:13 | 0.98815 | 100.30971 | 35911 ft | 461 kts | 318° |
| 2026-04-22 05:14 | 1.03504 | 100.26598 | 35919 ft | 461 kts | 318° |
| 2026-04-22 05:14 | 1.08190 | 100.22221 | 35934 ft | 461 kts | 318° |
| 2026-04-22 05:15 | 1.12846 | 100.17873 | 35939 ft | 461 kts | 318° |
| 2026-04-22 05:15 | 1.17533 | 100.13496 | 35948 ft | 461 kts | 317° |
| 2026-04-22 05:16 | 1.22223 | 100.09122 | 35959 ft | 461 kts | 318° |
| 2026-04-22 05:16 | 1.26883 | 100.04773 | 35967 ft | 461 kts | 317° |
| 2026-04-22 05:17 | 1.31562 | 100.00392 | 35974 ft | 461 kts | 317° |
| 2026-04-22 05:17 | 1.36244 | 99.96022 | 35978 ft | 461 kts | 318° |
| 2026-04-22 05:18 | 1.43275 | 99.89470 | 35986 ft | 461 kts | 318° |
| 2026-04-22 05:18 | 1.47954 | 99.85095 | 35993 ft | 461 kts | 317° |
| 2026-04-22 05:19 | 1.52635 | 99.80714 | 36008 ft | 461 kts | 317° |
| 2026-04-22 05:19 | 1.57323 | 99.76333 | 36017 ft | 461 kts | 318° |
| 2026-04-22 05:20 | 1.62007 | 99.71950 | 36026 ft | 461 kts | 317° |
| 2026-04-22 05:20 | 1.66691 | 99.67571 | 36032 ft | 461 kts | 318° |
| 2026-04-22 05:21 | 1.71379 | 99.63201 | 36046 ft | 461 kts | 318° |
| 2026-04-22 05:21 | 1.76082 | 99.58836 | 35715 ft | 461 kts | 321° |
| 2026-04-22 05:22 | 1.78730 | 99.57059 | 35462 ft | 458 kts | 335° |
| 2026-04-22 05:22 | 1.81675 | 99.55846 | 35213 ft | 458 kts | 340° |
| 2026-04-22 05:22 | 1.84662 | 99.54715 | 34964 ft | 460 kts | 340° |
| 2026-04-22 05:22 | 1.87662 | 99.53600 | 34711 ft | 461 kts | 340° |
| 2026-04-22 05:23 | 1.90672 | 99.52493 | 34466 ft | 461 kts | 341° |
| 2026-04-22 05:23 | 1.93689 | 99.51387 | 34229 ft | 462 kts | 341° |
| 2026-04-22 05:23 | 1.96710 | 99.50276 | 33968 ft | 463 kts | 340° |
| 2026-04-22 05:23 | 1.99735 | 99.49159 | 33717 ft | 464 kts | 340° |
| 2026-04-22 05:24 | 2.02762 | 99.48040 | 33468 ft | 464 kts | 340° |
| 2026-04-22 05:24 | 2.05784 | 99.46922 | 33216 ft | 463 kts | 340° |
| 2026-04-22 05:24 | 2.08796 | 99.45809 | 32959 ft | 461 kts | 340° |
| 2026-04-22 05:24 | 2.11797 | 99.44700 | 32709 ft | 459 kts | 340° |
| 2026-04-22 05:25 | 2.14785 | 99.43595 | 32461 ft | 457 kts | 340° |
| 2026-04-22 05:25 | 2.17760 | 99.42495 | 32215 ft | 455 kts | 340° |
| 2026-04-22 05:25 | 2.20721 | 99.41397 | 31951 ft | 452 kts | 340° |
| 2026-04-22 05:25 | 2.23661 | 99.40309 | 31384 ft | 449 kts | 340° |
| 2026-04-22 05:26 | 2.26584 | 99.39229 | 30799 ft | 446 kts | 340° |
| 2026-04-22 05:26 | 2.29487 | 99.38158 | 30206 ft | 444 kts | 340° |
| 2026-04-22 05:26 | 2.32333 | 99.37106 | 29626 ft | 441 kts | 340° |
| 2026-04-22 05:26 | 2.35236 | 99.36030 | 29041 ft | 437 kts | 340° |
| 2026-04-22 05:27 | 2.38038 | 99.34992 | 28488 ft | 434 kts | 340° |
| 2026-04-22 05:27 | 2.40858 | 99.33949 | 27940 ft | 430 kts | 341° |
| 2026-04-22 05:27 | 2.43654 | 99.32914 | 27389 ft | 427 kts | 341° |
| 2026-04-22 05:27 | 2.46428 | 99.31889 | 26846 ft | 423 kts | 341° |
| 2026-04-22 05:28 | 2.49175 | 99.30869 | 26304 ft | 419 kts | 341° |
| 2026-04-22 05:28 | 2.51895 | 99.29855 | 25800 ft | 415 kts | 341° |
| 2026-04-22 05:28 | 2.54586 | 99.28848 | 25292 ft | 411 kts | 341° |
| 2026-04-22 05:28 | 2.57251 | 99.27852 | 24790 ft | 407 kts | 341° |
| 2026-04-22 05:29 | 2.59869 | 99.26795 | 24031 ft | 408 kts | 333° |
| 2026-04-22 05:29 | 2.62226 | 99.25226 | 23215 ft | 402 kts | 325° |
| 2026-04-22 05:29 | 2.64443 | 99.23619 | 22763 ft | 386 kts | 325° |
| 2026-04-22 05:29 | 2.66584 | 99.22075 | 22298 ft | 372 kts | 325° |
| 2026-04-22 05:30 | 2.68669 | 99.20577 | 21839 ft | 368 kts | 325° |
| 2026-04-22 05:30 | 2.70746 | 99.19090 | 21381 ft | 367 kts | 325° |
| 2026-04-22 05:30 | 2.72817 | 99.17611 | 20910 ft | 365 kts | 325° |
| 2026-04-22 05:30 | 2.74884 | 99.16133 | 20442 ft | 364 kts | 325° |
| 2026-04-22 05:31 | 2.76938 | 99.14659 | 19976 ft | 363 kts | 325° |
| 2026-04-22 05:31 | 2.78985 | 99.13188 | 19498 ft | 362 kts | 325° |
| 2026-04-22 05:31 | 2.81026 | 99.11723 | 19026 ft | 360 kts | 325° |
| 2026-04-22 05:31 | 2.83059 | 99.10264 | 18547 ft | 359 kts | 324° |
| 2026-04-22 05:32 | 2.85085 | 99.08809 | 18091 ft | 358 kts | 324° |
| 2026-04-22 05:32 | 2.87104 | 99.07363 | 17622 ft | 356 kts | 324° |
| 2026-04-22 05:32 | 2.89113 | 99.05924 | 17163 ft | 354 kts | 324° |
| 2026-04-22 05:32 | 2.91111 | 99.04490 | 16698 ft | 353 kts | 324° |
| 2026-04-22 05:33 | 2.93102 | 99.03063 | 16233 ft | 351 kts | 324° |
| 2026-04-22 05:33 | 2.95094 | 99.01653 | 15780 ft | 350 kts | 325° |
| 2026-04-22 05:33 | 2.97082 | 99.00258 | 15334 ft | 348 kts | 325° |
| 2026-04-22 05:33 | 2.99041 | 98.98888 | 14865 ft | 347 kts | 325° |
| 2026-04-22 05:34 | 3.01015 | 98.97506 | 14421 ft | 346 kts | 325° |
| 2026-04-22 05:34 | 3.02981 | 98.96131 | 13968 ft | 344 kts | 324° |
| 2026-04-22 05:34 | 3.04937 | 98.94760 | 13518 ft | 342 kts | 324° |
| 2026-04-22 05:34 | 3.06880 | 98.93395 | 13150 ft | 339 kts | 324° |
| 2026-04-22 05:35 | 3.08799 | 98.92042 | 12722 ft | 337 kts | 324° |
| 2026-04-22 05:35 | 3.10709 | 98.90695 | 12266 ft | 335 kts | 324° |
| 2026-04-22 05:35 | 3.12613 | 98.89355 | 11801 ft | 334 kts | 324° |
| 2026-04-22 05:35 | 3.14508 | 98.88021 | 11332 ft | 332 kts | 324° |
| 2026-04-22 05:36 | 3.16396 | 98.86693 | 10870 ft | 331 kts | 324° |
| 2026-04-22 05:36 | 3.18275 | 98.85370 | 10415 ft | 328 kts | 324° |
| 2026-04-22 05:36 | 3.20087 | 98.84096 | 10184 ft | 308 kts | 324° |
| 2026-04-22 05:36 | 3.21807 | 98.82888 | 9721 ft | 298 kts | 324° |
| 2026-04-22 05:37 | 3.23491 | 98.81705 | 9560 ft | 295 kts | 324° |
| 2026-04-22 05:37 | 3.25169 | 98.80523 | 9400 ft | 296 kts | 324° |
| 2026-04-22 05:37 | 3.26858 | 98.79330 | 8916 ft | 298 kts | 325° |
| 2026-04-22 05:37 | 3.28547 | 98.78141 | 8462 ft | 299 kts | 325° |
| 2026-04-22 05:38 | 3.30236 | 98.76953 | 8149 ft | 294 kts | 325° |
| 2026-04-22 05:38 | 3.31892 | 98.75790 | 7569 ft | 290 kts | 325° |
| 2026-04-22 05:38 | 3.33540 | 98.74632 | 6937 ft | 288 kts | 325° |
| 2026-04-22 05:38 | 3.35163 | 98.73493 | 6396 ft | 282 kts | 325° |
| 2026-04-22 05:39 | 3.36748 | 98.72379 | 5876 ft | 275 kts | 325° |
| 2026-04-22 05:39 | 3.38290 | 98.71293 | 5353 ft | 269 kts | 325° |
| 2026-04-22 05:39 | 3.39810 | 98.70224 | 4827 ft | 264 kts | 325° |
| 2026-04-22 05:39 | 3.41407 | 98.69385 | 4360 ft | 255 kts | 343° |
| 2026-04-22 05:40 | 3.43091 | 98.69094 | 4305 ft | 239 kts | 359° |
| 2026-04-22 05:40 | 3.44677 | 98.69256 | 4242 ft | 227 kts | 14° |
| 2026-04-22 05:40 | 3.46120 | 98.69803 | 4146 ft | 217 kts | 29° |
| 2026-04-22 05:40 | 3.47329 | 98.70662 | 4062 ft | 210 kts | 43° |
| 2026-04-22 05:41 | 3.48355 | 98.71675 | 3901 ft | 202 kts | 45° |
| 2026-04-22 05:41 | 3.49314 | 98.72632 | 3657 ft | 189 kts | 45° |
| 2026-04-22 05:41 | 3.50210 | 98.73526 | 3431 ft | 175 kts | 45° |
| 2026-04-22 05:41 | 3.51047 | 98.74359 | 3193 ft | 164 kts | 45° |
| 2026-04-22 05:42 | 3.51842 | 98.75151 | 2978 ft | 159 kts | 45° |
| 2026-04-22 05:42 | 3.52621 | 98.75926 | 2769 ft | 157 kts | 45° |
| 2026-04-22 05:42 | 3.53389 | 98.76692 | 2561 ft | 155 kts | 45° |
| 2026-04-22 05:42 | 3.54150 | 98.77450 | 2355 ft | 154 kts | 45° |
| 2026-04-22 05:43 | 3.54905 | 98.78202 | 2149 ft | 153 kts | 45° |
| 2026-04-22 05:43 | 3.55654 | 98.78948 | 1953 ft | 151 kts | 45° |
| 2026-04-22 05:43 | 3.56398 | 98.79688 | 1753 ft | 150 kts | 45° |
| 2026-04-22 05:43 | 3.57140 | 98.80427 | 1555 ft | 150 kts | 44° |
| 2026-04-22 05:44 | 3.57874 | 98.81159 | 1355 ft | 148 kts | 44° |
| 2026-04-22 05:44 | 3.58603 | 98.81885 | 1159 ft | 147 kts | 44° |
| 2026-04-22 05:44 | 3.59324 | 98.82603 | 961 ft | 145 kts | 43° |
| 2026-04-22 05:44 | 3.60037 | 98.83313 | 772 ft | 144 kts | 43° |
| 2026-04-22 05:45 | 3.60755 | 98.84032 | 562 ft | 148 kts | 45° |
| 2026-04-22 05:45 | 3.61493 | 98.84760 | 386 ft | 150 kts | 46° |
| 2026-04-22 05:45 | 3.62224 | 98.85502 | 181 ft | 150 kts | 45° |
| 2026-04-22 05:45 | 3.62957 | 98.86233 | 44 ft | 143 kts | 46° |
| 2026-04-22 05:46 | 3.63574 | 98.86850 | 34 ft | 102 kts | 45° |
| 2026-04-22 05:46 | 3.63945 | 98.87222 | 37 ft | 35 kts | 45° |
| 2026-04-22 05:46 | 3.64075 | 98.87381 | 34 ft | 24 kts | 65° |
| 2026-04-22 05:46 | 3.64110 | 98.87499 | 35 ft | 13 kts | 75° |
| 2026-04-22 05:47 | 3.64130 | 98.87574 | 37 ft | 10 kts | 75° |
| 2026-04-22 05:47 | 3.64146 | 98.87631 | 38 ft | 7 kts | 75° |
| 2026-04-22 05:47 | 3.64163 | 98.87686 | 37 ft | 13 kts | 66° |
| 2026-04-22 05:47 | 3.64229 | 98.87755 | 39 ft | 14 kts | 44° |
| 2026-04-22 05:48 | 3.64304 | 98.87829 | 39 ft | 17 kts | 45° |
| 2026-04-22 05:48 | 3.64395 | 98.87919 | 39 ft | 14 kts | 45° |
| 2026-04-22 05:48 | 3.64406 | 98.88000 | 39 ft | 13 kts | 127° |
| 2026-04-22 05:48 | 3.64347 | 98.88060 | 38 ft | 11 kts | 135° |
| 2026-04-22 05:49 | 3.64295 | 98.88111 | 40 ft | 10 kts | 135° |
| 2026-04-22 05:49 | 3.64243 | 98.88163 | 38 ft | 11 kts | 135° |
| 2026-04-22 05:49 | 3.64187 | 98.88201 | 38 ft | 9 kts | 174° |
| 2026-04-22 05:49 | 3.64122 | 98.88174 | 40 ft | 11 kts | 186° |
| 2026-04-22 05:50 | 3.64068 | 98.88211 | 40 ft | 9 kts | 135° |
| 2026-04-22 05:50 | 3.64018 | 98.88261 | 40 ft | 10 kts | 135° |
| 2026-04-22 05:50 | 3.63970 | 98.88309 | 39 ft | 11 kts | 135° |
| 2026-04-22 05:50 | 3.63904 | 98.88375 | 40 ft | 14 kts | 135° |
| 2026-04-22 05:51 | 3.63840 | 98.88439 | 39 ft | 11 kts | 135° |
| 2026-04-22 05:51 | 3.63774 | 98.88444 | 40 ft | 9 kts | 209° |
| 2026-04-22 05:51 | 3.63728 | 98.88398 | 40 ft | 13 kts | 225° |
| 2026-04-22 05:51 | 3.63667 | 98.88337 | 38 ft | 11 kts | 225° |
| 2026-04-22 05:52 | 3.63621 | 98.88291 | 38 ft | 9 kts | 224° |
| 2026-04-22 05:52 | 3.63571 | 98.88276 | 40 ft | 7 kts | 186° |
| 2026-04-22 05:52 | 3.63540 | 98.88252 | 40 ft | 5 kts | 224° |
| 2026-04-22 05:52 | 3.63518 | 98.88229 | 40 ft | 4 kts | 225° |
| 2026-04-22 05:53 | 3.63504 | 98.88215 | 39 ft | 0 kts | 225° |